Time,TemperatureF,DewpointF,PressureIn,WindDirection,WindDirectionDegrees,WindSpeedMPH,WindSpeedGustMPH,Humidity,HourlyPrecipIn,Conditions,Clouds,dailyrainin,SoftwareType,DateUTC
2013-05-13 00:02:00,46.0,41.2,30.04,NNE,30,0.0,2.0,83,0.00,,,0.01,meteohub,2013-05-12 22:02:00,
2013-05-13 00:32:00,45.9,40.6,30.06,NNE,30,0.0,1.0,82,0.00,,,0.01,meteohub,2013-05-12 22:32:00,
2013-05-13 01:02:00,45.0,40.6,30.06,NNE,30,0.0,2.0,85,0.00,,,0.01,meteohub,2013-05-12 23:02:00,
2013-05-13 01:32:00,44.1,40.5,30.06,NNE,30,0.0,3.0,87,0.00,,,0.01,meteohub,2013-05-12 23:32:00,
2013-05-13 02:02:00,44.4,40.5,30.06,West,260,0.0,3.0,86,0.00,,,0.01,meteohub,2013-05-13 00:02:00,
2013-05-13 02:32:00,44.1,40.8,30.07,South,175,4.0,4.0,88,0.00,,,0.00,meteohub,2013-05-13 00:32:00,
2013-05-13 03:02:00,44.6,40.6,30.07,WSW,245,1.0,4.0,86,0.00,,,0.00,meteohub,2013-05-13 01:02:00,
2013-05-13 03:32:00,44.4,40.5,30.07,WSW,252,0.0,3.0,86,0.00,,,0.00,meteohub,2013-05-13 01:32:00,
2013-05-13 04:02:00,44.1,40.5,30.07,NE,40,0.0,3.0,87,0.00,,,0.00,meteohub,2013-05-13 02:02:00,
2013-05-13 04:32:00,43.3,40.1,30.07,WSW,252,2.0,2.0,88,0.00,,,0.00,meteohub,2013-05-13 02:32:00,
2013-05-13 05:02:00,43.0,39.7,30.06,SW,231,0.0,3.0,88,0.00,,,0.00,meteohub,2013-05-13 03:02:00,
2013-05-13 05:32:00,42.4,39.7,30.07,SSW,208,0.0,1.0,90,0.00,,,0.00,meteohub,2013-05-13 03:32:00,
2013-05-13 06:02:00,42.3,40.1,30.07,SSW,208,0.0,3.0,92,0.00,,,0.00,meteohub,2013-05-13 04:02:00,
2013-05-13 06:32:00,43.2,40.1,30.08,SW,227,2.0,6.0,89,0.00,,,0.00,meteohub,2013-05-13 04:32:00,
2013-05-13 07:02:00,44.2,41.0,30.08,South,188,0.0,2.0,88,0.00,,,0.00,meteohub,2013-05-13 05:02:00,
2013-05-13 07:32:00,46.9,42.1,30.08,WNW,298,5.0,5.0,83,0.00,,,0.00,meteohub,2013-05-13 05:32:00,
2013-05-13 08:02:00,48.2,42.3,30.08,SSW,209,5.0,7.0,80,0.00,,,0.00,meteohub,2013-05-13 06:02:00,
2013-05-13 08:32:00,49.6,42.8,30.08,SSW,213,5.0,9.0,77,0.00,,,0.00,meteohub,2013-05-13 06:32:00,
2013-05-13 09:02:00,50.5,43.5,30.07,SW,223,4.0,8.0,77,0.00,,,0.00,meteohub,2013-05-13 07:02:00,
2013-05-13 09:32:00,52.2,44.1,30.06,NW,325,3.0,9.0,74,0.00,,,0.00,meteohub,2013-05-13 07:32:00,
2013-05-13 10:02:00,53.1,44.2,30.06,SE,131,1.0,11.0,72,0.00,,,0.00,meteohub,2013-05-13 08:02:00,
2013-05-13 10:32:00,55.2,44.1,30.05,SE,133,2.0,8.0,66,0.00,,,0.00,meteohub,2013-05-13 08:32:00,
2013-05-13 11:02:00,56.5,43.7,30.04,SW,222,5.0,8.0,62,0.00,,,0.00,meteohub,2013-05-13 09:02:00,
2013-05-13 11:32:00,56.8,41.4,30.03,North,0,6.0,9.0,56,0.00,,,0.00,meteohub,2013-05-13 09:32:00,
2013-05-13 12:02:00,58.3,39.7,30.03,SW,221,6.0,9.0,50,0.00,,,0.00,meteohub,2013-05-13 10:02:00,
2013-05-13 12:32:00,52.2,43.3,30.05,West,276,5.0,13.0,72,0.00,,,0.00,meteohub,2013-05-13 10:32:00,
2013-05-13 13:02:00,50.2,44.6,30.05,NNW,342,0.0,12.0,81,0.01,,,0.01,meteohub,2013-05-13 11:02:00,
2013-05-13 13:32:00,52.3,47.3,30.04,East,85,2.0,3.0,83,0.02,,,0.02,meteohub,2013-05-13 11:32:00,
2013-05-13 14:02:00,55.2,46.4,30.02,West,259,2.0,9.0,72,0.01,,,0.02,meteohub,2013-05-13 12:02:00,
2013-05-13 14:32:00,56.5,44.4,30.02,SW,232,5.0,13.0,64,0.00,,,0.02,meteohub,2013-05-13 12:32:00,
2013-05-13 15:02:00,55.8,43.7,30.02,South,191,2.0,12.0,64,0.00,,,0.02,meteohub,2013-05-13 13:02:00,
2013-05-13 15:32:00,54.3,44.4,30.02,South,185,3.0,11.0,69,0.00,,,0.02,meteohub,2013-05-13 13:32:00,
2013-05-13 16:02:00,54.0,44.8,30.01,SE,146,1.0,12.0,71,0.00,,,0.02,meteohub,2013-05-13 14:02:00,
2013-05-13 16:32:00,53.2,45.1,30.01,West,265,8.0,8.0,74,0.00,,,0.02,meteohub,2013-05-13 14:32:00,
2013-05-13 17:02:00,52.5,45.1,30.01,WNW,300,2.0,9.0,76,0.00,,,0.02,meteohub,2013-05-13 15:02:00,
2013-05-13 17:32:00,52.9,45.9,30.00,NNE,19,1.0,9.0,77,0.00,,,0.02,meteohub,2013-05-13 15:32:00,
2013-05-13 18:02:00,52.9,45.9,30.00,West,264,1.0,9.0,77,0.00,,,0.02,meteohub,2013-05-13 16:02:00,
2013-05-13 18:32:00,52.9,45.9,29.99,West,280,4.0,5.0,77,0.00,,,0.02,meteohub,2013-05-13 16:32:00,
2013-05-13 19:02:00,52.7,46.4,29.99,SSW,204,1.0,6.0,79,0.00,,,0.02,meteohub,2013-05-13 17:02:00,
2013-05-13 19:32:00,52.0,46.9,29.99,SSW,209,2.0,7.0,83,0.00,,,0.02,meteohub,2013-05-13 17:32:00,
2013-05-13 20:02:00,52.0,47.3,29.99,WNW,300,2.0,6.0,84,0.00,,,0.02,meteohub,2013-05-13 18:02:00,
2013-05-13 20:32:00,52.0,47.7,29.99,ENE,66,3.0,6.0,85,0.00,,,0.02,meteohub,2013-05-13 18:32:00,
2013-05-13 21:02:00,52.0,47.7,30.00,NNE,23,1.0,8.0,85,0.00,,,0.02,meteohub,2013-05-13 19:02:00,
2013-05-13 21:32:00,52.2,47.8,30.00,NNE,25,0.0,2.0,85,0.00,,,0.02,meteohub,2013-05-13 19:32:00,
2013-05-13 22:02:00,52.2,48.0,30.00,NNE,25,0.0,1.0,86,0.00,,,0.02,meteohub,2013-05-13 20:02:00,
2013-05-13 22:32:00,52.0,48.6,29.99,NNE,25,0.0,1.0,88,0.00,,,0.02,meteohub,2013-05-13 20:32:00,
2013-05-13 23:02:00,51.6,48.6,29.99,NNE,25,0.0,1.0,89,0.00,,,0.02,meteohub,2013-05-13 21:02:00,
2013-05-13 23:32:00,52.0,48.6,29.99,WSW,250,0.0,3.0,88,0.00,,,0.02,meteohub,2013-05-13 21:32:00,